Time;durP1;ratioP1;P1;durP2;ratioP2;P2;SDS_P1;SDS_P2;PMS_P1;PMS_P2;Temp;Humidity;BMP_temperature;BMP_pressure;BME280_temperature;BME280_humidity;BME280_pressure;Samples;Min_cycle;Max_cycle;Signal;HPM_P1;HPM_P2
2023/05/24 00:00:37;;;;;;;;;3.33;2.67;;;;;15.25;46.31;101846.91;4984267;28;45664;-69
2023/05/24 00:03:04;;;;;;;;;7.67;4.33;;;;;15.30;46.20;101859.59;5006283;28;45245;-69
2023/05/24 00:05:29;;;;;;;;;2.67;2.00;;;;;15.31;46.65;101852.47;5009883;28;45653;-69
2023/05/24 00:07:55;;;;;;;;;2.00;2.00;;;;;15.24;46.48;101835.22;5011366;28;45071;-71
2023/05/24 00:10:21;;;;;;;;;3.00;2.67;;;;;15.35;46.51;101853.44;5006472;28;45313;-70
2023/05/24 00:12:46;;;;;;;;;3.33;3.33;;;;;15.35;46.47;101848.06;5013095;28;45113;-71
2023/05/24 00:15:11;;;;;;;;;3.00;2.33;;;;;15.30;46.36;101837.16;5010356;28;45051;-71
2023/05/24 00:17:39;;;;;;;;;4.33;4.33;;;;;15.36;46.78;101842.72;5011034;28;45208;-68
2023/05/24 00:20:10;;;;;;;;;4.67;3.67;;;;;15.35;46.70;101842.66;5010997;28;44962;-67
2023/05/24 00:22:36;;;;;;;;;6.33;4.67;;;;;15.21;46.48;101824.41;5005021;28;45513;-69
2023/05/24 00:25:02;;;;;;;;;6.00;4.33;;;;;15.29;46.76;101836.28;5009329;28;45503;-67
2023/05/24 00:27:27;;;;;;;;;3.67;3.33;;;;;15.18;46.78;101824.31;5011676;28;45169;-68
2023/05/24 00:29:53;;;;;;;;;3.33;3.00;;;;;14.98;47.31;101788.84;5011363;28;45633;-69
2023/05/24 00:32:18;;;;;;;;;1.67;1.67;;;;;15.23;47.01;101830.72;4990209;28;45274;-66
2023/05/24 00:34:44;;;;;;;;;6.67;5.00;;;;;15.24;47.03;101834.31;5006345;28;45373;-71
2023/05/24 00:37:09;;;;;;;;;3.00;2.67;;;;;15.08;46.96;101812.41;5010602;28;45095;-70
2023/05/24 00:39:35;;;;;;;;;4.00;3.00;;;;;15.16;47.21;101817.97;5010799;28;45221;-71
2023/05/24 00:42:01;;;;;;;;;6.67;4.00;;;;;15.13;47.29;101825.06;5010848;28;45514;-69
2023/05/24 00:44:26;;;;;;;;;7.67;4.33;;;;;15.08;47.76;101816.91;5010727;28;46378;-69
2023/05/24 00:46:51;;;;;;;;;7.67;5.00;;;;;15.02;47.69;101816.72;5011099;28;45454;-66
2023/05/24 00:49:18;;;;;;;;;6.33;4.33;;;;;14.95;47.72;101803.97;5011208;28;45270;-70
2023/05/24 00:51:44;;;;;;;;;4.00;2.00;;;;;14.98;48.07;101815.75;5011647;28;45139;-69
2023/05/24 00:54:12;;;;;;;;;4.00;2.00;;;;;14.94;48.26;101819.22;5007683;28;45407;-70
2023/05/24 00:56:38;;;;;;;;;4.00;2.00;;;;;14.93;48.20;101812.94;5011136;28;45328;-68
2023/05/24 00:59:03;;;;;;;;;4.00;3.00;;;;;14.87;48.36;101802.00;5010805;28;45177;-71
2023/05/24 01:01:30;;;;;;;;;5.67;4.00;;;;;14.84;48.55;101798.34;5010583;28;45294;-71
2023/05/24 01:03:56;;;;;;;;;6.00;3.67;;;;;14.78;48.55;101801.75;5007362;28;46196;-71
2023/05/24 01:06:22;;;;;;;;;6.00;4.67;;;;;14.78;48.76;101811.63;5010562;28;45401;-70
2023/05/24 01:09:08;;;;;;;;;5.67;5.00;;;;;14.76;48.93;101800.81;5010839;28;45105;-71
2023/05/24 01:11:55;;;;;;;;;5.67;4.33;;;;;14.78;48.96;101808.94;5010834;28;44965;-69
2023/05/24 01:14:38;;;;;;;;;1.00;1.00;;;;;14.81;48.70;101817.09;5008989;28;45581;-70
2023/05/24 01:17:45;;;;;;;;;6.00;4.33;;;;;14.79;48.78;101810.75;5003519;28;45313;-70
2023/05/24 01:20:13;;;;;;;;;3.33;2.67;;;;;14.79;48.79;101813.44;4962887;28;45293;-65
2023/05/24 01:22:49;;;;;;;;;6.00;3.33;;;;;14.75;48.93;101823.22;5010177;28;45036;-69
2023/05/24 01:25:52;;;;;;;;;7.00;4.00;;;;;14.68;49.14;101822.16;4998471;28;46468;-68
2023/05/24 01:28:21;;;;;;;;;7.00;6.00;;;;;14.48;49.16;101785.69;5009924;28;45418;-71
2023/05/24 01:30:46;;;;;;;;;4.00;4.00;;;;;14.49;49.12;101785.75;4991708;28;45057;-71
2023/05/24 01:33:12;;;;;;;;;4.33;3.67;;;;;14.60;49.43;101812.97;5009945;28;45272;-70
2023/05/24 01:35:41;;;;;;;;;5.67;4.00;;;;;14.65;49.56;101823.81;4988773;28;46187;-71
2023/05/24 01:38:07;;;;;;;;;8.00;6.25;;;;;14.59;49.63;101812.91;5000948;28;45290;-70
2023/05/24 01:40:33;;;;;;;;;4.00;3.00;;;;;14.51;49.58;101812.66;5010022;28;45395;-69
2023/05/24 01:43:06;;;;;;;;;6.00;4.33;;;;;14.51;49.86;101820.75;5010340;28;45842;-67
2023/05/24 01:45:43;;;;;;;;;3.67;3.33;;;;;14.52;50.49;101831.53;5000855;28;45404;-69
2023/05/24 01:48:39;;;;;;;;;8.67;4.00;;;;;14.51;50.15;101834.19;5008033;28;45657;-70
2023/05/24 01:51:07;;;;;;;;;6.00;3.00;;;;;14.35;50.20;101801.50;5001615;28;45456;-69
2023/05/24 01:53:34;;;;;;;;;3.00;2.00;;;;;14.33;49.88;101805.91;4977735;28;45447;-70
2023/05/24 01:56:03;;;;;;;;;5.67;3.00;;;;;14.41;49.97;101818.69;4998363;28;46437;-67
2023/05/24 01:58:30;;;;;;;;;6.67;4.00;;;;;14.34;50.12;101813.13;5009318;28;45282;-69
2023/05/24 02:00:56;;;;;;;;;3.33;3.00;;;;;14.35;50.67;101828.38;5010229;28;44945;-68
2023/05/24 02:03:21;;;;;;;;;3.00;3.00;;;;;14.29;50.93;101835.38;5010783;28;45570;-70
2023/05/24 02:05:47;;;;;;;;;3.00;3.00;;;;;14.22;51.12;101814.53;5009645;28;45523;-68
2023/05/24 02:08:12;;;;;;;;;5.00;3.00;;;;;14.13;50.98;101826.84;5009518;28;45341;-71
2023/05/24 02:10:39;;;;;;;;;5.00;3.00;;;;;14.19;50.96;101837.78;5009772;28;44849;-70
2023/05/24 02:13:05;;;;;;;;;7.00;4.00;;;;;14.21;50.99;101832.47;5007230;28;45153;-68
2023/05/24 02:15:31;;;;;;;;;5.00;2.00;;;;;14.18;50.82;101838.63;5009359;28;45193;-67
2023/05/24 02:17:57;;;;;;;;;4.25;4.00;;;;;14.05;51.32;101806.00;5009576;28;44994;-70
2023/05/24 02:20:23;;;;;;;;;5.00;3.00;;;;;14.18;51.17;101835.94;5009348;28;45089;-69
2023/05/24 02:22:48;;;;;;;;;2.00;2.00;;;;;14.15;51.38;101830.47;5010483;28;45291;-69
2023/05/24 02:25:14;;;;;;;;;6.33;3.00;;;;;14.08;51.59;101809.69;5009386;28;46381;-68
2023/05/24 02:27:40;;;;;;;;;8.67;5.00;;;;;14.07;51.58;101823.06;5009542;28;45082;-70
2023/05/24 02:30:07;;;;;;;;;7.00;4.00;;;;;13.93;51.29;101804.78;4985190;28;45361;-66
2023/05/24 02:32:33;;;;;;;;;8.00;4.00;;;;;14.06;51.45;101840.09;5007706;28;45050;-67
2023/05/24 02:35:00;;;;;;;;;4.00;4.00;;;;;13.98;51.78;101826.41;5007141;28;46297;-65
2023/05/24 02:37:26;;;;;;;;;5.33;3.67;;;;;13.94;52.44;101829.84;5009909;28;45178;-68
2023/05/24 02:39:51;;;;;;;;;10.67;4.00;;;;;13.57;51.78;101770.56;5009203;28;45045;-68
2023/05/24 02:42:17;;;;;;;;;7.00;4.00;;;;;13.73;52.36;101793.44;5002887;28;45274;-69
2023/05/24 02:44:46;;;;;;;;;5.00;4.00;;;;;13.68;52.57;101799.50;5003571;28;45359;-68
2023/05/24 02:47:11;;;;;;;;;8.67;7.00;;;;;13.80;52.90;101816.91;5009311;28;45290;-66
2023/05/24 02:49:37;;;;;;;;;6.00;5.00;;;;;13.73;51.98;101797.91;5008474;28;45246;-69
2023/05/24 02:52:02;;;;;;;;;7.33;5.00;;;;;13.79;52.13;101807.06;5001751;28;45383;-68
2023/05/24 02:54:27;;;;;;;;;5.75;3.00;;;;;13.90;52.37;101823.47;5009865;28;46667;-68
2023/05/24 02:56:55;;;;;;;;;7.00;4.00;;;;;13.82;51.97;101809.81;5008751;28;45285;-67
2023/05/24 02:59:21;;;;;;;;;7.00;4.67;;;;;13.88;52.24;101818.94;5008365;28;45129;-67
2023/05/24 03:01:46;;;;;;;;;4.67;4.00;;;;;13.86;52.26;101818.91;5008698;28;45018;-69
2023/05/24 03:04:11;;;;;;;;;7.25;4.25;;;;;13.86;52.60;101807.22;4988806;28;47779;-69
2023/05/24 03:06:37;;;;;;;;;5.33;4.00;;;;;13.70;52.26;101782.59;5009130;28;45481;-69
2023/05/24 03:09:02;;;;;;;;;3.50;3.25;;;;;13.81;52.21;101807.09;5008266;28;45489;-65
2023/05/24 03:11:27;;;;;;;;;6.00;4.75;;;;;13.78;52.11;101815.06;5008276;28;45356;-70
2023/05/24 03:13:53;;;;;;;;;4.00;3.00;;;;;13.74;52.56;101806.00;5003708;28;45550;-68
2023/05/24 03:16:19;;;;;;;;;5.00;4.25;;;;;13.72;53.14;101815.78;5006734;28;45288;-68
2023/05/24 03:18:45;;;;;;;;;6.25;5.25;;;;;13.74;52.63;101814.06;4999023;28;45491;-70
2023/05/24 03:21:10;;;;;;;;;12.50;11.00;;;;;13.77;53.16;101810.56;5008691;28;45320;-66
2023/05/24 03:23:35;;;;;;;;;7.50;4.00;;;;;13.67;52.74;101793.25;5008262;28;46034;-69
2023/05/24 03:26:01;;;;;;;;;6.00;4.75;;;;;13.60;52.58;101786.78;5007470;28;52029;-69
2023/05/24 03:28:27;;;;;;;;;8.25;5.00;;;;;13.69;52.88;101809.41;5007251;28;45513;-72
2023/05/24 03:30:52;;;;;;;;;4.50;4.00;;;;;13.66;52.48;101807.56;5008789;28;45263;-69
2023/05/24 03:33:18;;;;;;;;;6.25;5.00;;;;;13.65;52.96;101811.09;5008140;28;45170;-70
2023/05/24 03:35:43;;;;;;;;;5.00;3.33;;;;;13.61;53.20;101811.84;5007169;28;45504;-69
2023/05/24 03:38:09;;;;;;;;;7.00;5.75;;;;;13.60;52.72;101813.63;5006857;28;45384;-68
2023/05/24 03:40:35;;;;;;;;;5.00;3.75;;;;;13.49;53.46;101787.31;5008660;28;45431;-69
2023/05/24 03:43:00;;;;;;;;;5.50;4.00;;;;;13.47;53.12;101794.41;5013493;28;45607;-67
2023/05/24 03:45:26;;;;;;;;;5.50;4.00;;;;;13.46;53.57;101804.22;5007403;28;48432;-70
2023/05/24 03:47:51;;;;;;;;;5.75;4.75;;;;;13.49;53.53;101804.31;5008242;28;45131;-67
2023/05/24 03:50:16;;;;;;;;;6.50;3.25;;;;;13.35;53.75;101777.06;5010979;28;53942;-67
2023/05/24 03:52:42;;;;;;;;;7.50;4.50;;;;;13.43;53.28;101790.72;5001295;28;45326;-68
2023/05/24 03:55:08;;;;;;;;;3.75;3.75;;;;;13.44;53.19;101797.91;5011644;28;45230;-63
2023/05/24 03:57:33;;;;;;;;;3.50;3.50;;;;;13.46;53.63;101809.59;5003679;28;45534;-65
2023/05/24 03:59:59;;;;;;;;;7.25;3.75;;;;;13.42;53.48;101819.31;5004450;28;45322;-65
2023/05/24 04:02:25;;;;;;;;;4.75;4.75;;;;;13.44;54.15;101822.97;4996046;28;47166;-65
2023/05/24 04:04:50;;;;;;;;;4.00;4.00;;;;;13.38;53.71;101817.41;4981417;28;45341;-68
2023/05/24 04:07:16;;;;;;;;;3.00;3.00;;;;;13.33;53.69;101819.06;5006851;28;45478;-70
2023/05/24 04:09:42;;;;;;;;;6.25;5.00;;;;;13.22;54.09;101797.19;5011663;28;45018;-66
2023/05/24 04:12:07;;;;;;;;;7.25;4.00;;;;;13.37;54.04;101820.06;5000053;28;45338;-67
2023/05/24 04:14:34;;;;;;;;;5.25;3.25;;;;;13.38;53.65;101809.38;4996970;28;45270;-64
2023/05/24 04:17:01;;;;;;;;;7.50;4.00;;;;;13.45;52.98;101827.47;5008865;28;45326;-66
2023/05/24 04:19:26;;;;;;;;;7.00;5.75;;;;;13.47;53.74;101827.53;5006344;28;45269;-70
2023/05/24 04:21:51;;;;;;;;;6.67;4.00;;;;;13.33;53.66;101805.63;5008797;28;45936;-67
2023/05/24 04:24:17;;;;;;;;;3.00;2.00;;;;;13.36;53.34;101812.84;5005901;28;45432;-66
2023/05/24 04:26:43;;;;;;;;;6.25;4.25;;;;;13.40;53.89;101826.44;5005536;28;45649;-65
2023/05/24 04:29:09;;;;;;;;;4.00;4.00;;;;;13.33;53.91;101827.09;4996688;28;45399;-66
2023/05/24 04:31:34;;;;;;;;;6.00;5.25;;;;;13.45;54.07;101843.59;4995737;28;46116;-69
2023/05/24 04:34:00;;;;;;;;;8.00;8.00;;;;;13.52;53.63;101842.00;5009645;28;45325;-70
2023/05/24 04:36:25;;;;;;;;;10.75;5.25;;;;;13.55;52.91;101846.59;5002920;28;45558;-68
2023/05/24 04:38:52;;;;;;;;;4.75;4.75;;;;;13.55;53.18;101846.59;5008653;28;45684;-67
2023/05/24 04:41:18;;;;;;;;;7.00;4.50;;;;;13.50;53.02;101845.53;5011287;28;45345;-67
2023/05/24 04:43:44;;;;;;;;;9.50;5.00;;;;;13.53;53.05;101850.97;5010419;28;45256;-65
2023/05/24 04:46:09;;;;;;;;;9.75;6.25;;;;;13.53;53.41;101856.34;5009850;28;45155;-69
2023/05/24 04:48:35;;;;;;;;;5.25;5.25;;;;;13.51;53.73;101853.59;4989481;28;45282;-69
2023/05/24 04:51:00;;;;;;;;;10.50;5.25;;;;;13.49;53.49;101847.28;4998211;28;46558;-66
2023/05/24 04:53:26;;;;;;;;;7.50;6.50;;;;;13.32;53.38;101830.63;5011530;28;45315;-66
2023/05/24 04:55:52;;;;;;;;;6.25;4.00;;;;;13.38;53.11;101836.22;5006255;28;45389;-67
2023/05/24 04:58:17;;;;;;;;;6.00;4.00;;;;;13.48;53.62;101863.34;5010202;28;45345;-68
2023/05/24 05:00:43;;;;;;;;;11.50;10.00;;;;;13.48;53.36;101860.66;5010214;28;45620;-66
2023/05/24 05:03:09;;;;;;;;;6.25;6.00;;;;;13.54;53.70;101861.75;5009835;28;45266;-66
2023/05/24 05:05:34;;;;;;;;;4.25;4.25;;;;;13.36;53.56;101829.84;5004825;28;45229;-68
2023/05/24 05:08:00;;;;;;;;;7.00;4.00;;;;;13.62;53.86;101870.97;5012069;28;45182;-67
2023/05/24 05:10:26;;;;;;;;;4.00;4.00;;;;;13.44;53.00;101832.81;5009844;28;45474;-68
2023/05/24 05:12:52;;;;;;;;;8.00;4.67;;;;;13.28;53.24;101823.28;5011043;28;45214;-69
2023/05/24 05:15:18;;;;;;;;;4.25;4.25;;;;;13.50;53.00;101859.84;5010063;28;45509;-68
2023/05/24 05:17:44;;;;;;;;;7.00;4.67;;;;;13.53;54.01;101865.31;4995752;28;45473;-66
2023/05/24 05:20:09;;;;;;;;;5.00;5.00;;;;;13.41;52.59;101833.63;4999541;28;45476;-68
2023/05/24 05:22:35;;;;;;;;;7.00;5.00;;;;;13.56;53.33;101859.13;5010142;28;45230;-68
2023/05/24 05:25:00;;;;;;;;;6.25;5.25;;;;;13.57;53.46;101853.81;5010119;28;45424;-66
2023/05/24 05:27:26;;;;;;;;;15.25;15.25;;;;;13.63;53.07;101862.06;5009980;28;45334;-67
2023/05/24 05:29:51;;;;;;;;;12.50;9.75;;;;;13.67;52.45;101870.22;5010024;28;45060;-69
2023/05/24 05:32:17;;;;;;;;;18.25;13.00;;;;;13.63;53.11;101855.78;4996235;28;45248;-69
2023/05/24 05:34:42;;;;;;;;;6.50;5.50;;;;;13.74;52.96;101858.78;5009147;28;45029;-67
2023/05/24 05:37:08;;;;;;;;;9.25;7.00;;;;;13.38;52.66;101801.31;5010270;28;45208;-66
2023/05/24 05:39:33;;;;;;;;;7.75;5.00;;;;;13.63;52.86;101831.63;5008826;28;46196;-67
2023/05/24 05:41:58;;;;;;;;;8.50;5.50;;;;;13.82;52.56;101862.63;4999965;28;45388;-67
2023/05/24 05:44:24;;;;;;;;;9.75;6.00;;;;;13.87;52.05;101860.09;5006752;28;45434;-68
2023/05/24 05:46:49;;;;;;;;;11.00;7.25;;;;;13.80;52.59;101857.22;5006898;28;45436;-68
2023/05/24 05:49:17;;;;;;;;;16.25;13.00;;;;;13.88;52.20;101857.47;4986919;28;47572;-69
2023/05/24 05:51:43;;;;;;;;;11.75;8.00;;;;;13.87;52.68;101850.25;5010373;28;45133;-67
2023/05/24 05:54:13;;;;;;;;;9.75;7.25;;;;;13.99;51.67;101871.19;5008986;28;45134;-68
2023/05/24 05:56:44;;;;;;;;;6.25;5.00;;;;;14.04;51.92;101866.91;4999103;28;45409;-70
2023/05/24 05:59:10;;;;;;;;;6.50;4.25;;;;;14.10;52.07;101885.88;4994039;28;45477;-69
2023/05/24 06:01:35;;;;;;;;;10.00;9.25;;;;;14.04;51.42;101869.59;4995880;28;45412;-70
2023/05/24 06:04:00;;;;;;;;;16.75;7.00;;;;;14.03;51.58;101875.81;5006733;28;45293;-69
2023/05/24 06:06:26;;;;;;;;;4.75;4.75;;;;;14.01;51.41;101875.78;4995229;28;45556;-70
2023/05/24 06:08:51;;;;;;;;;6.75;5.50;;;;;14.04;52.06;101879.41;4997843;28;61807;-69
2023/05/24 06:11:16;;;;;;;;;24.75;20.75;;;;;14.04;51.69;101880.34;5007262;28;45304;-69
2023/05/24 06:13:42;;;;;;;;;9.25;8.75;;;;;14.06;51.58;101877.69;4993797;28;45515;-69
2023/05/24 06:16:07;;;;;;;;;12.75;9.25;;;;;14.07;51.83;101875.03;5000344;28;45497;-68
2023/05/24 06:18:33;;;;;;;;;7.25;7.25;;;;;14.07;51.79;101869.66;5007080;28;45403;-70
2023/05/24 06:20:58;;;;;;;;;5.00;5.00;;;;;14.17;51.67;101876.22;5000552;28;45699;-70
2023/05/24 06:23:24;;;;;;;;;7.50;6.00;;;;;14.21;51.40;101886.22;5005583;28;45436;-72
2023/05/24 06:25:49;;;;;;;;;8.75;7.50;;;;;14.26;51.42;101891.72;5005291;28;44984;-68
2023/05/24 06:28:15;;;;;;;;;5.00;5.00;;;;;14.25;51.11;101888.09;5009196;28;45519;-69
2023/05/24 06:30:40;;;;;;;;;8.50;5.75;;;;;14.28;51.29;101890.00;5007400;28;45556;-69
2023/05/24 06:33:06;;;;;;;;;8.00;5.67;;;;;14.43;51.04;101889.53;4997083;28;45549;-72
2023/05/24 06:35:31;;;;;;;;;5.00;5.00;;;;;14.47;50.75;101886.03;5000410;28;46237;-71
2023/05/24 06:37:56;;;;;;;;;5.75;4.25;;;;;14.48;50.68;101891.47;4996286;28;46514;-71
2023/05/24 06:40:22;;;;;;;;;16.00;8.25;;;;;14.52;50.52;101888.00;5008747;28;45511;-72
2023/05/24 06:42:47;;;;;;;;;19.00;14.50;;;;;14.58;50.34;101887.25;4987248;28;45505;-71
2023/05/24 06:45:13;;;;;;;;;9.00;7.25;;;;;14.52;50.50;101868.28;5003808;28;45472;-67
2023/05/24 06:47:39;;;;;;;;;7.33;5.33;;;;;14.64;50.49;101883.88;5005758;28;46261;-71
2023/05/24 06:50:05;;;;;;;;;7.00;5.67;;;;;14.55;49.76;101850.47;5008885;28;45228;-70
2023/05/24 06:52:30;;;;;;;;;8.75;8.75;;;;;14.74;49.91;101880.56;5006525;28;45168;-68
2023/05/24 06:54:55;;;;;;;;;7.50;7.00;;;;;14.73;49.80;101871.59;5005530;28;45110;-70
2023/05/24 06:57:21;;;;;;;;;8.25;7.00;;;;;14.81;49.54;101881.66;4995889;28;45544;-67
2023/05/24 06:59:46;;;;;;;;;10.50;9.50;;;;;14.81;49.58;101882.56;5005980;28;45535;-70
2023/05/24 07:02:12;;;;;;;;;9.50;6.50;;;;;14.89;49.19;101874.69;4998702;28;45235;-70
2023/05/24 07:04:39;;;;;;;;;13.00;8.50;;;;;14.85;49.31;101867.41;4981292;28;45385;-70
2023/05/24 07:07:05;;;;;;;;;8.50;7.75;;;;;14.96;49.10;101881.16;4993199;28;46494;-70
2023/05/24 07:09:31;;;;;;;;;9.33;6.33;;;;;14.89;49.46;101854.06;5003133;28;45522;-69
2023/05/24 07:11:56;;;;;;;;;56.75;44.50;;;;;15.01;48.89;101875.00;4995101;28;45488;-70
2023/05/24 07:14:22;;;;;;;;;14.25;13.75;;;;;15.17;48.67;101887.09;4989089;28;45271;-69
2023/05/24 07:16:48;;;;;;;;;12.25;8.75;;;;;15.18;48.15;101883.53;5008352;28;46102;-72
2023/05/24 07:19:14;;;;;;;;;6.00;5.00;;;;;15.22;48.20;101881.84;4997542;28;45289;-70
2023/05/24 07:21:39;;;;;;;;;5.33;5.33;;;;;15.37;48.19;101886.69;4998445;28;45447;-70
2023/05/24 07:24:05;;;;;;;;;10.00;7.00;;;;;15.44;48.05;101894.03;5003105;28;45430;-71
2023/05/24 07:26:30;;;;;;;;;6.67;5.00;;;;;15.39;47.83;101876.88;4994049;28;46300;-68
2023/05/24 07:28:56;;;;;;;;;6.00;6.00;;;;;15.47;47.98;101886.03;5002490;28;45346;-71
2023/05/24 07:31:21;;;;;;;;;12.75;9.00;;;;;15.46;47.93;101876.16;4984928;28;45504;-68
2023/05/24 07:33:47;;;;;;;;;10.33;6.67;;;;;15.58;48.05;101884.53;4993758;28;45450;-69
2023/05/24 07:36:14;;;;;;;;;6.67;6.67;;;;;15.57;47.70;101881.78;5000084;28;46264;-72
2023/05/24 07:38:39;;;;;;;;;5.67;5.67;;;;;15.56;46.93;101862.03;4983480;28;45485;-71
2023/05/24 07:41:06;;;;;;;;;3.00;3.00;;;;;15.76;47.18;101892.16;5011395;28;45268;-69
2023/05/24 07:43:31;;;;;;;;;6.00;5.00;;;;;15.86;46.99;101878.91;5008641;28;45161;-68
2023/05/24 07:45:57;;;;;;;;;8.00;8.00;;;;;15.89;46.60;101889.75;5010466;28;45516;-70
2023/05/24 07:48:23;;;;;;;;;7.00;6.67;;;;;15.94;46.86;101880.00;5005372;28;45317;-69
2023/05/24 07:50:51;;;;;;;;;9.00;8.33;;;;;15.98;46.26;101890.88;5007057;28;45208;-67
2023/05/24 07:53:18;;;;;;;;;11.33;7.00;;;;;16.08;46.36;101896.47;5007597;28;45354;-71
2023/05/24 07:55:44;;;;;;;;;5.67;5.67;;;;;16.02;46.10;101875.69;4998965;28;45930;-64
2023/05/24 07:58:10;;;;;;;;;4.00;3.67;;;;;16.10;45.80;101883.94;5005489;28;45307;-66
2023/05/24 08:00:36;;;;;;;;;4.00;4.00;;;;;16.19;45.78;101889.53;4992612;28;45517;-70
2023/05/24 08:03:02;;;;;;;;;8.00;3.67;;;;;16.28;45.71;101895.09;4995374;28;45394;-68
2023/05/24 08:05:27;;;;;;;;;8.00;4.00;;;;;16.40;45.96;101884.59;5005123;28;46936;-68
2023/05/24 08:07:53;;;;;;;;;9.00;5.00;;;;;16.48;45.70;101886.53;4998830;28;45474;-70
2023/05/24 08:10:18;;;;;;;;;6.33;4.00;;;;;16.50;44.81;101868.56;4998450;28;45377;-69
2023/05/24 08:12:44;;;;;;;;;10.00;8.33;;;;;16.73;45.15;101885.25;4998060;28;45539;-69
2023/05/24 08:15:10;;;;;;;;;4.33;3.00;;;;;16.82;44.19;101887.19;4988440;28;45448;-68
2023/05/24 08:17:37;;;;;;;;;9.33;4.00;;;;;16.88;43.36;101882.84;4997885;28;45370;-68
2023/05/24 08:20:08;;;;;;;;;2.67;2.67;;;;;16.93;42.72;101893.75;4975935;28;45450;-70
2023/05/24 08:22:34;;;;;;;;;7.00;3.00;;;;;16.93;42.61;101886.56;4994268;28;45391;-67
2023/05/24 08:24:59;;;;;;;;;7.00;3.33;;;;;17.00;41.96;101892.97;5005814;28;46145;-67
2023/05/24 08:27:27;;;;;;;;;10.00;4.00;;;;;17.02;42.50;101895.69;5001738;28;45558;-67
2023/05/24 08:29:53;;;;;;;;;3.00;3.00;;;;;17.03;42.06;101890.31;5004767;28;45680;-67
2023/05/24 08:32:18;;;;;;;;;3.67;3.00;;;;;17.06;42.00;101882.28;5005505;28;45381;-70
2023/05/24 08:34:44;;;;;;;;;4.33;4.33;;;;;17.18;42.09;101896.91;4981029;28;46260;-70
2023/05/24 08:37:10;;;;;;;;;6.33;4.00;;;;;17.21;41.34;101880.72;4998529;28;45538;-68
2023/05/24 08:39:35;;;;;;;;;8.67;5.00;;;;;17.34;39.89;101900.75;5002708;28;45473;-69
2023/05/24 08:42:02;;;;;;;;;7.67;4.00;;;;;17.30;40.47;101867.38;4997933;28;45336;-67
2023/05/24 08:44:30;;;;;;;;;3.00;3.00;;;;;17.37;40.20;101863.88;4995619;28;46966;-68
2023/05/24 08:46:57;;;;;;;;;8.00;6.00;;;;;17.58;38.87;101887.63;4978422;28;45437;-69
2023/05/24 08:49:23;;;;;;;;;3.00;2.67;;;;;17.72;38.52;101893.28;4978409;28;45428;-69
2023/05/24 08:51:50;;;;;;;;;3.67;3.67;;;;;17.76;38.18;101889.72;4996216;28;45476;-68
2023/05/24 08:54:19;;;;;;;;;6.00;6.00;;;;;17.81;37.87;101889.78;4995621;28;45578;-69
2023/05/24 08:56:44;;;;;;;;;8.00;6.67;;;;;17.90;37.31;101897.16;4989470;28;45424;-67
2023/05/24 08:59:12;;;;;;;;;2.00;1.67;;;;;17.99;36.63;101886.47;4995998;28;45638;-68
2023/05/24 09:01:40;;;;;;;;;6.33;4.00;;;;;18.09;37.04;101893.84;4995784;28;45534;-69
2023/05/24 09:04:07;;;;;;;;;6.67;3.00;;;;;18.01;36.74;101854.97;4995290;28;46117;-70
2023/05/24 09:06:33;;;;;;;;;4.67;4.33;;;;;18.18;36.74;101885.84;4994223;28;45591;-68
2023/05/24 09:09:04;;;;;;;;;3.00;3.00;;;;;18.23;35.52;101875.06;4976325;28;45758;-69
2023/05/24 09:11:31;;;;;;;;;4.67;2.00;;;;;18.32;35.66;101872.50;4988188;28;45535;-67
2023/05/24 09:13:57;;;;;;;;;2.00;2.00;;;;;18.49;34.57;101869.09;4988752;28;45837;-70
2023/05/24 09:16:23;;;;;;;;;3.00;3.00;;;;;18.60;34.64;101862.91;5006061;28;45311;-68
2023/05/24 09:18:48;;;;;;;;;4.33;4.33;;;;;18.65;34.41;101845.81;4989351;28;45118;-69
2023/05/24 09:21:14;;;;;;;;;4.67;3.33;;;;;18.85;33.87;101856.88;5003886;28;45148;-68
2023/05/24 09:23:40;;;;;;;;;3.67;3.00;;;;;18.73;33.32;101841.38;5010118;28;45539;-71
2023/05/24 09:26:08;;;;;;;;;5.33;1.67;;;;;18.84;32.47;101860.47;5012181;28;45161;-67
2023/05/24 09:28:33;;;;;;;;;2.67;2.00;;;;;18.79;32.25;101868.50;5010852;28;45474;-69
2023/05/24 09:31:01;;;;;;;;;3.33;3.33;;;;;18.69;32.01;101855.75;4992629;28;45220;-70
2023/05/24 09:33:31;;;;;;;;;2.33;2.00;;;;;18.38;32.27;101783.28;4998011;28;47282;-67
2023/05/24 09:35:59;;;;;;;;;11.00;8.67;;;;;18.87;31.71;101864.09;5012461;28;45014;-73
2023/05/24 09:38:24;;;;;;;;;2.67;2.67;;;;;19.00;32.03;101856.13;5010315;28;45211;-71
2023/05/24 09:41:16;;;;;;;;;3.33;3.33;;;;;19.04;31.64;101850.75;4990865;28;45375;-72
2023/05/24 09:43:49;;;;;;;;;9.00;6.67;;;;;19.13;31.81;101849.91;4989093;28;46459;-71
2023/05/24 09:46:18;;;;;;;;;7.67;4.00;;;;;19.10;30.88;101844.47;4995691;28;45293;-71
2023/05/24 09:49:02;;;;;;;;;3.33;1.33;;;;;19.21;30.30;101855.41;4993006;28;45704;-69
2023/05/24 09:51:28;;;;;;;;;2.67;2.67;;;;;19.31;29.50;101858.19;4997157;28;45674;-67
2023/05/24 09:53:57;;;;;;;;;4.67;2.00;;;;;19.31;30.37;101860.00;4994765;28;46434;-73
2023/05/24 09:56:22;;;;;;;;;3.00;3.00;;;;;19.44;30.04;101867.31;4998523;28;46520;-72
2023/05/24 09:58:47;;;;;;;;;3.00;3.00;;;;;19.30;30.45;101823.88;4995081;28;45459;-74
2023/05/24 10:01:15;;;;;;;;;3.67;3.67;;;;;19.58;30.15;101850.25;4995206;28;45541;-72
2023/05/24 10:04:01;;;;;;;;;2.00;2.00;;;;;19.59;30.06;101858.41;4969971;28;48300;-74
2023/05/24 10:06:31;;;;;;;;;1.33;1.00;;;;;19.60;30.02;101849.38;4975134;28;46117;-74
2023/05/24 10:08:57;;;;;;;;;3.00;1.00;;;;;19.50;30.06;101829.44;4993542;28;45391;-73
2023/05/24 10:11:23;;;;;;;;;2.67;2.67;;;;;19.64;29.44;101843.06;4987306;28;45173;-70
2023/05/24 10:13:48;;;;;;;;;2.00;2.00;;;;;19.64;29.98;101853.00;5003663;28;48403;-69
2023/05/24 10:16:15;;;;;;;;;4.33;2.00;;;;;19.67;30.04;101845.81;5006717;28;45215;-72
2023/05/24 10:18:40;;;;;;;;;2.67;2.67;;;;;19.69;30.05;101838.56;4979806;28;45594;-68
2023/05/24 10:21:09;;;;;;;;;16.67;13.33;;;;;19.66;30.60;101822.28;4991594;28;45521;-69
2023/05/24 10:23:37;;;;;;;;;12.67;10.33;;;;;19.81;30.75;101829.63;4992684;28;45477;-68
2023/05/24 10:26:08;;;;;;;;;4.33;4.33;;;;;19.89;30.20;101843.25;4992410;28;45610;-69
2023/05/24 10:28:39;;;;;;;;;3.67;3.00;;;;;19.86;30.44;101821.53;4990263;28;45386;-71
2023/05/24 10:31:15;;;;;;;;;12.33;10.33;;;;;20.01;30.25;101826.13;5002199;28;45495;-69
2023/05/24 10:33:43;;;;;;;;;3.00;1.00;;;;;19.94;29.51;101811.63;4996863;28;46800;-70
2023/05/24 10:36:12;;;;;;;;;5.33;2.00;;;;;20.01;29.61;101829.75;5011204;28;45102;-71
2023/05/24 10:38:39;;;;;;;;;8.33;6.33;;;;;19.94;29.17;101814.34;4992293;28;45690;-70
2023/05/24 10:41:06;;;;;;;;;1.33;1.33;;;;;20.05;28.25;101826.16;5008244;28;45249;-71
2023/05/24 10:43:33;;;;;;;;;3.67;2.00;;;;;20.09;28.39;101834.31;5010042;28;45753;-69
2023/05/24 10:45:58;;;;;;;;;1.67;1.67;;;;;20.16;28.81;101822.56;5004746;28;45417;-69
2023/05/24 10:48:27;;;;;;;;;1.00;1.00;;;;;20.14;28.93;101825.28;4991086;28;45555;-69
2023/05/24 10:50:56;;;;;;;;;10.33;8.33;;;;;20.11;28.62;101811.69;4994576;28;45352;-68
2023/05/24 10:53:23;;;;;;;;;2.00;2.00;;;;;20.18;28.62;101818.06;5005517;28;45933;-69
2023/05/24 10:55:59;;;;;;;;;8.00;4.33;;;;;20.21;28.59;101828.91;4997646;28;45435;-67
2023/05/24 10:58:50;;;;;;;;;5.33;4.00;;;;;20.28;28.65;101829.84;4983191;28;45512;-69
2023/05/24 11:01:34;;;;;;;;;2.33;2.33;;;;;20.27;27.77;101819.91;4989404;28;45476;-69
2023/05/24 11:04:07;;;;;;;;;4.33;4.00;;;;;20.24;28.28;101819.00;4987293;28;46093;-70
2023/05/24 11:07:00;;;;;;;;;3.00;3.00;;;;;20.25;28.17;101828.94;4992506;28;45592;-68
2023/05/24 11:09:26;;;;;;;;;5.67;4.33;;;;;20.13;28.22;101790.91;4980327;28;45125;-68
2023/05/24 11:12:06;;;;;;;;;6.67;3.00;;;;;20.29;28.52;101823.53;5002521;28;45605;-68
2023/05/24 11:14:38;;;;;;;;;3.00;3.00;;;;;20.24;28.13;101826.22;5008708;28;45783;-70
2023/05/24 11:17:04;;;;;;;;;5.33;4.67;;;;;20.19;28.38;101815.34;5008569;28;45264;-69
2023/05/24 11:19:32;;;;;;;;;4.33;3.00;;;;;20.29;28.49;101818.09;4992837;28;45434;-68
2023/05/24 11:22:02;;;;;;;;;4.00;3.00;;;;;20.28;28.25;101817.19;4972477;28;46155;-69
2023/05/24 11:24:29;;;;;;;;;1.67;1.67;;;;;20.27;28.36;101823.53;5006002;28;46893;-68